sensor_id;sensor_type;location;lat;lon;timestamp;P1;durP1;ratioP1;P2;durP2;ratioP2
36855;SDS011;22788;51.434;6.786;2023-08-31T00:01:49;3.63;;;1.58;;
36855;SDS011;22788;51.434;6.786;2023-08-31T00:04:16;2.85;;;1.90;;
36855;SDS011;22788;51.434;6.786;2023-08-31T00:06:43;2.10;;;1.73;;
36855;SDS011;22788;51.434;6.786;2023-08-31T00:09:10;2.15;;;1.95;;
36855;SDS011;22788;51.434;6.786;2023-08-31T00:11:40;4.88;;;2.15;;
36855;SDS011;22788;51.434;6.786;2023-08-31T00:14:07;2.92;;;1.75;;
36855;SDS011;22788;51.434;6.786;2023-08-31T00:16:33;3.85;;;1.70;;
36855;SDS011;22788;51.434;6.786;2023-08-31T00:19:01;4.28;;;2.03;;
36855;SDS011;22788;51.434;6.786;2023-08-31T00:21:29;5.53;;;1.75;;
36855;SDS011;22788;51.434;6.786;2023-08-31T00:23:56;2.80;;;1.90;;
36855;SDS011;22788;51.434;6.786;2023-08-31T00:26:23;3.85;;;2.13;;
36855;SDS011;22788;51.434;6.786;2023-08-31T00:28:52;3.92;;;2.33;;
36855;SDS011;22788;51.434;6.786;2023-08-31T00:31:19;3.10;;;1.90;;
36855;SDS011;22788;51.434;6.786;2023-08-31T00:33:46;2.78;;;1.65;;
36855;SDS011;22788;51.434;6.786;2023-08-31T00:36:14;2.40;;;1.80;;
36855;SDS011;22788;51.434;6.786;2023-08-31T00:38:42;6.15;;;1.92;;
36855;SDS011;22788;51.434;6.786;2023-08-31T00:41:08;4.40;;;2.28;;
36855;SDS011;22788;51.434;6.786;2023-08-31T00:43:34;2.75;;;1.83;;
36855;SDS011;22788;51.434;6.786;2023-08-31T00:46:01;2.47;;;1.90;;
36855;SDS011;22788;51.434;6.786;2023-08-31T00:48:27;2.72;;;1.80;;
36855;SDS011;22788;51.434;6.786;2023-08-31T00:50:53;4.28;;;2.13;;
36855;SDS011;22788;51.434;6.786;2023-08-31T00:53:19;2.40;;;1.80;;
36855;SDS011;22788;51.434;6.786;2023-08-31T00:55:45;2.40;;;1.90;;
36855;SDS011;22788;51.434;6.786;2023-08-31T00:58:10;2.72;;;2.03;;
36855;SDS011;22788;51.434;6.786;2023-08-31T01:00:39;3.20;;;2.22;;
36855;SDS011;22788;51.434;6.786;2023-08-31T01:03:12;3.17;;;1.70;;
36855;SDS011;22788;51.434;6.786;2023-08-31T01:05:44;3.17;;;2.22;;
36855;SDS011;22788;51.434;6.786;2023-08-31T01:08:19;4.20;;;2.13;;
36855;SDS011;22788;51.434;6.786;2023-08-31T01:10:53;2.53;;;1.98;;
36855;SDS011;22788;51.434;6.786;2023-08-31T01:13:28;3.45;;;2.30;;
36855;SDS011;22788;51.434;6.786;2023-08-31T01:15:57;2.00;;;1.77;;
36855;SDS011;22788;51.434;6.786;2023-08-31T01:18:26;4.28;;;1.65;;
36855;SDS011;22788;51.434;6.786;2023-08-31T01:20:55;4.40;;;1.88;;
36855;SDS011;22788;51.434;6.786;2023-08-31T01:23:27;2.92;;;2.30;;
36855;SDS011;22788;51.434;6.786;2023-08-31T01:26:00;2.75;;;2.03;;
36855;SDS011;22788;51.434;6.786;2023-08-31T01:28:26;2.70;;;1.80;;
36855;SDS011;22788;51.434;6.786;2023-08-31T01:30:51;2.88;;;1.90;;
36855;SDS011;22788;51.434;6.786;2023-08-31T01:33:17;3.70;;;1.80;;
36855;SDS011;22788;51.434;6.786;2023-08-31T01:35:43;2.28;;;1.67;;
36855;SDS011;22788;51.434;6.786;2023-08-31T01:38:13;2.35;;;1.98;;
36855;SDS011;22788;51.434;6.786;2023-08-31T01:40:44;3.13;;;1.90;;
36855;SDS011;22788;51.434;6.786;2023-08-31T01:43:15;2.83;;;1.77;;
36855;SDS011;22788;51.434;6.786;2023-08-31T01:45:42;2.22;;;1.75;;
36855;SDS011;22788;51.434;6.786;2023-08-31T01:48:10;2.17;;;1.70;;
36855;SDS011;22788;51.434;6.786;2023-08-31T01:50:38;3.00;;;1.70;;
36855;SDS011;22788;51.434;6.786;2023-08-31T01:53:03;4.13;;;1.83;;
36855;SDS011;22788;51.434;6.786;2023-08-31T01:55:29;3.53;;;1.83;;
36855;SDS011;22788;51.434;6.786;2023-08-31T01:57:54;2.85;;;1.75;;
36855;SDS011;22788;51.434;6.786;2023-08-31T02:00:22;2.42;;;1.63;;
36855;SDS011;22788;51.434;6.786;2023-08-31T02:02:47;3.47;;;1.83;;
36855;SDS011;22788;51.434;6.786;2023-08-31T02:05:13;2.22;;;1.90;;
36855;SDS011;22788;51.434;6.786;2023-08-31T02:07:39;2.92;;;1.85;;
36855;SDS011;22788;51.434;6.786;2023-08-31T02:10:05;4.07;;;2.10;;
36855;SDS011;22788;51.434;6.786;2023-08-31T02:12:31;3.63;;;2.00;;
36855;SDS011;22788;51.434;6.786;2023-08-31T02:14:56;2.35;;;1.70;;
36855;SDS011;22788;51.434;6.786;2023-08-31T02:17:23;2.78;;;1.73;;
36855;SDS011;22788;51.434;6.786;2023-08-31T02:19:49;2.45;;;1.63;;
36855;SDS011;22788;51.434;6.786;2023-08-31T02:22:15;3.03;;;1.77;;
36855;SDS011;22788;51.434;6.786;2023-08-31T02:24:40;2.67;;;2.00;;
36855;SDS011;22788;51.434;6.786;2023-08-31T02:27:06;3.30;;;1.70;;
36855;SDS011;22788;51.434;6.786;2023-08-31T02:29:31;2.65;;;1.70;;
36855;SDS011;22788;51.434;6.786;2023-08-31T02:31:57;2.03;;;1.70;;
36855;SDS011;22788;51.434;6.786;2023-08-31T02:34:24;3.72;;;2.15;;
36855;SDS011;22788;51.434;6.786;2023-08-31T02:36:50;1.98;;;1.73;;
36855;SDS011;22788;51.434;6.786;2023-08-31T02:39:15;2.17;;;1.80;;
36855;SDS011;22788;51.434;6.786;2023-08-31T02:41:41;2.78;;;1.63;;
36855;SDS011;22788;51.434;6.786;2023-08-31T02:44:06;4.07;;;1.75;;
36855;SDS011;22788;51.434;6.786;2023-08-31T02:46:32;3.25;;;2.17;;
36855;SDS011;22788;51.434;6.786;2023-08-31T02:48:58;4.35;;;2.00;;
36855;SDS011;22788;51.434;6.786;2023-08-31T02:51:25;2.55;;;1.70;;
36855;SDS011;22788;51.434;6.786;2023-08-31T02:53:50;2.60;;;2.00;;
36855;SDS011;22788;51.434;6.786;2023-08-31T02:56:16;2.90;;;1.85;;
36855;SDS011;22788;51.434;6.786;2023-08-31T02:58:41;2.20;;;1.73;;
36855;SDS011;22788;51.434;6.786;2023-08-31T03:01:08;3.17;;;2.00;;
36855;SDS011;22788;51.434;6.786;2023-08-31T03:03:33;2.00;;;1.83;;
36855;SDS011;22788;51.434;6.786;2023-08-31T03:05:59;3.35;;;2.00;;
36855;SDS011;22788;51.434;6.786;2023-08-31T03:08:26;2.33;;;1.60;;
36855;SDS011;22788;51.434;6.786;2023-08-31T03:10:52;2.30;;;1.63;;
36855;SDS011;22788;51.434;6.786;2023-08-31T03:13:17;2.08;;;1.70;;
36855;SDS011;22788;51.434;6.786;2023-08-31T03:15:43;3.53;;;1.73;;
36855;SDS011;22788;51.434;6.786;2023-08-31T03:18:09;3.65;;;1.70;;
36855;SDS011;22788;51.434;6.786;2023-08-31T03:20:34;3.90;;;2.00;;
36855;SDS011;22788;51.434;6.786;2023-08-31T03:23:00;2.28;;;1.77;;
36855;SDS011;22788;51.434;6.786;2023-08-31T03:25:28;2.72;;;1.60;;
36855;SDS011;22788;51.434;6.786;2023-08-31T03:27:53;2.00;;;1.63;;
36855;SDS011;22788;51.434;6.786;2023-08-31T03:30:19;2.20;;;1.98;;
36855;SDS011;22788;51.434;6.786;2023-08-31T03:32:45;2.30;;;1.70;;
36855;SDS011;22788;51.434;6.786;2023-08-31T03:35:11;1.98;;;1.73;;
36855;SDS011;22788;51.434;6.786;2023-08-31T03:37:36;4.55;;;1.80;;
36855;SDS011;22788;51.434;6.786;2023-08-31T03:40:02;2.03;;;1.60;;
36855;SDS011;22788;51.434;6.786;2023-08-31T03:42:29;3.15;;;1.80;;
36855;SDS011;22788;51.434;6.786;2023-08-31T03:44:55;3.30;;;2.03;;
36855;SDS011;22788;51.434;6.786;2023-08-31T03:47:21;1.95;;;1.70;;
36855;SDS011;22788;51.434;6.786;2023-08-31T03:49:46;2.20;;;2.00;;
36855;SDS011;22788;51.434;6.786;2023-08-31T03:52:12;3.85;;;1.92;;
36855;SDS011;22788;51.434;6.786;2023-08-31T03:54:38;3.35;;;2.30;;
36855;SDS011;22788;51.434;6.786;2023-08-31T03:57:03;2.50;;;1.85;;
36855;SDS011;22788;51.434;6.786;2023-08-31T03:59:30;3.08;;;1.73;;
36855;SDS011;22788;51.434;6.786;2023-08-31T04:01:56;2.30;;;1.73;;
36855;SDS011;22788;51.434;6.786;2023-08-31T04:04:22;2.63;;;2.28;;
36855;SDS011;22788;51.434;6.786;2023-08-31T04:06:47;2.25;;;1.80;;
36855;SDS011;22788;51.434;6.786;2023-08-31T04:09:13;2.10;;;1.50;;
36855;SDS011;22788;51.434;6.786;2023-08-31T04:11:38;2.17;;;1.98;;
36855;SDS011;22788;51.434;6.786;2023-08-31T04:14:04;2.08;;;1.70;;
36855;SDS011;22788;51.434;6.786;2023-08-31T04:16:31;2.22;;;1.80;;
36855;SDS011;22788;51.434;6.786;2023-08-31T04:18:57;2.35;;;1.98;;
36855;SDS011;22788;51.434;6.786;2023-08-31T04:21:22;2.92;;;1.85;;
36855;SDS011;22788;51.434;6.786;2023-08-31T04:23:48;2.17;;;1.73;;
36855;SDS011;22788;51.434;6.786;2023-08-31T04:26:14;2.15;;;1.70;;
36855;SDS011;22788;51.434;6.786;2023-08-31T04:28:40;2.17;;;1.75;;
36855;SDS011;22788;51.434;6.786;2023-08-31T04:31:06;1.88;;;1.63;;
36855;SDS011;22788;51.434;6.786;2023-08-31T04:33:34;3.72;;;1.80;;
36855;SDS011;22788;51.434;6.786;2023-08-31T04:36:00;2.03;;;1.63;;
36855;SDS011;22788;51.434;6.786;2023-08-31T04:38:26;3.83;;;2.25;;
36855;SDS011;22788;51.434;6.786;2023-08-31T04:40:51;3.70;;;2.00;;
36855;SDS011;22788;51.434;6.786;2023-08-31T04:43:17;2.30;;;1.90;;
36855;SDS011;22788;51.434;6.786;2023-08-31T04:45:43;2.05;;;1.75;;
36855;SDS011;22788;51.434;6.786;2023-08-31T04:48:08;2.67;;;1.50;;
36855;SDS011;22788;51.434;6.786;2023-08-31T04:50:35;4.70;;;1.98;;
36855;SDS011;22788;51.434;6.786;2023-08-31T04:53:01;1.83;;;1.70;;
36855;SDS011;22788;51.434;6.786;2023-08-31T04:55:26;2.45;;;1.95;;
36855;SDS011;22788;51.434;6.786;2023-08-31T04:57:52;3.22;;;1.42;;
36855;SDS011;22788;51.434;6.786;2023-08-31T05:00:18;2.85;;;1.80;;
36855;SDS011;22788;51.434;6.786;2023-08-31T05:02:44;2.33;;;1.70;;
36855;SDS011;22788;51.434;6.786;2023-08-31T05:05:10;2.75;;;1.80;;
36855;SDS011;22788;51.434;6.786;2023-08-31T05:07:37;3.33;;;1.90;;
36855;SDS011;22788;51.434;6.786;2023-08-31T05:10:02;2.20;;;2.00;;
36855;SDS011;22788;51.434;6.786;2023-08-31T05:12:29;2.28;;;1.73;;
36855;SDS011;22788;51.434;6.786;2023-08-31T05:14:54;2.95;;;1.80;;
36855;SDS011;22788;51.434;6.786;2023-08-31T05:17:21;2.38;;;1.90;;
36855;SDS011;22788;51.434;6.786;2023-08-31T05:19:46;4.97;;;2.08;;
36855;SDS011;22788;51.434;6.786;2023-08-31T05:22:12;3.28;;;1.90;;
36855;SDS011;22788;51.434;6.786;2023-08-31T05:24:39;3.22;;;1.80;;
36855;SDS011;22788;51.434;6.786;2023-08-31T05:27:05;2.17;;;1.38;;
36855;SDS011;22788;51.434;6.786;2023-08-31T05:29:30;3.28;;;1.67;;
36855;SDS011;22788;51.434;6.786;2023-08-31T05:31:56;2.80;;;1.77;;
36855;SDS011;22788;51.434;6.786;2023-08-31T05:34:21;2.22;;;1.95;;
36855;SDS011;22788;51.434;6.786;2023-08-31T05:36:47;2.45;;;1.85;;
36855;SDS011;22788;51.434;6.786;2023-08-31T05:39:13;2.60;;;1.83;;
36855;SDS011;22788;51.434;6.786;2023-08-31T05:41:41;3.03;;;1.92;;
36855;SDS011;22788;51.434;6.786;2023-08-31T05:44:07;5.90;;;2.20;;
36855;SDS011;22788;51.434;6.786;2023-08-31T05:46:33;5.63;;;2.87;;
36855;SDS011;22788;51.434;6.786;2023-08-31T05:48:59;4.07;;;2.47;;
36855;SDS011;22788;51.434;6.786;2023-08-31T05:51:25;3.63;;;2.28;;
36855;SDS011;22788;51.434;6.786;2023-08-31T05:53:51;3.58;;;2.08;;
36855;SDS011;22788;51.434;6.786;2023-08-31T05:56:17;3.53;;;2.13;;
36855;SDS011;22788;51.434;6.786;2023-08-31T05:58:44;4.13;;;2.25;;
36855;SDS011;22788;51.434;6.786;2023-08-31T06:01:10;3.40;;;2.03;;
36855;SDS011;22788;51.434;6.786;2023-08-31T06:03:36;3.15;;;1.90;;
36855;SDS011;22788;51.434;6.786;2023-08-31T06:06:02;3.25;;;2.00;;
36855;SDS011;22788;51.434;6.786;2023-08-31T06:08:28;2.55;;;1.95;;
36855;SDS011;22788;51.434;6.786;2023-08-31T06:10:54;5.18;;;2.08;;
36855;SDS011;22788;51.434;6.786;2023-08-31T06:13:20;2.53;;;2.00;;
36855;SDS011;22788;51.434;6.786;2023-08-31T06:15:47;3.13;;;1.95;;
36855;SDS011;22788;51.434;6.786;2023-08-31T06:18:13;2.55;;;1.95;;
36855;SDS011;22788;51.434;6.786;2023-08-31T06:20:39;3.22;;;2.08;;
36855;SDS011;22788;51.434;6.786;2023-08-31T06:23:05;3.33;;;1.95;;
36855;SDS011;22788;51.434;6.786;2023-08-31T06:25:31;7.40;;;1.98;;
36855;SDS011;22788;51.434;6.786;2023-08-31T06:27:57;2.35;;;1.88;;
36855;SDS011;22788;51.434;6.786;2023-08-31T06:30:23;4.13;;;2.30;;
36855;SDS011;22788;51.434;6.786;2023-08-31T06:32:51;2.38;;;2.15;;
36855;SDS011;22788;51.434;6.786;2023-08-31T06:35:17;2.53;;;2.10;;
36855;SDS011;22788;51.434;6.786;2023-08-31T06:37:43;2.63;;;1.90;;
36855;SDS011;22788;51.434;6.786;2023-08-31T06:40:09;6.07;;;2.60;;
36855;SDS011;22788;51.434;6.786;2023-08-31T06:42:36;4.93;;;2.40;;
36855;SDS011;22788;51.434;6.786;2023-08-31T06:45:02;3.10;;;2.08;;
36855;SDS011;22788;51.434;6.786;2023-08-31T06:47:28;3.17;;;1.85;;
36855;SDS011;22788;51.434;6.786;2023-08-31T06:49:55;8.05;;;2.25;;
36855;SDS011;22788;51.434;6.786;2023-08-31T06:52:21;3.53;;;2.08;;
36855;SDS011;22788;51.434;6.786;2023-08-31T06:54:47;3.00;;;2.15;;
36855;SDS011;22788;51.434;6.786;2023-08-31T06:57:13;3.05;;;1.90;;
36855;SDS011;22788;51.434;6.786;2023-08-31T06:59:39;4.65;;;1.83;;
36855;SDS011;22788;51.434;6.786;2023-08-31T07:02:05;3.97;;;2.47;;
36855;SDS011;22788;51.434;6.786;2023-08-31T07:04:31;1.90;;;1.80;;
36855;SDS011;22788;51.434;6.786;2023-08-31T07:06:58;2.90;;;2.08;;
36855;SDS011;22788;51.434;6.786;2023-08-31T07:09:24;3.70;;;2.10;;
36855;SDS011;22788;51.434;6.786;2023-08-31T07:11:50;4.00;;;1.90;;
36855;SDS011;22788;51.434;6.786;2023-08-31T07:14:16;3.85;;;2.38;;
36855;SDS011;22788;51.434;6.786;2023-08-31T07:16:42;2.38;;;1.98;;
36855;SDS011;22788;51.434;6.786;2023-08-31T07:19:08;2.67;;;1.90;;
36855;SDS011;22788;51.434;6.786;2023-08-31T07:21:34;2.92;;;2.00;;
36855;SDS011;22788;51.434;6.786;2023-08-31T07:24:01;2.25;;;1.80;;
36855;SDS011;22788;51.434;6.786;2023-08-31T07:26:27;3.13;;;1.70;;
36855;SDS011;22788;51.434;6.786;2023-08-31T07:28:53;4.90;;;1.77;;
36855;SDS011;22788;51.434;6.786;2023-08-31T07:31:19;2.70;;;1.60;;
36855;SDS011;22788;51.434;6.786;2023-08-31T07:33:45;4.45;;;2.10;;
36855;SDS011;22788;51.434;6.786;2023-08-31T07:36:11;2.78;;;2.17;;
36855;SDS011;22788;51.434;6.786;2023-08-31T07:38:37;4.20;;;2.05;;
36855;SDS011;22788;51.434;6.786;2023-08-31T07:41:04;3.00;;;1.67;;
36855;SDS011;22788;51.434;6.786;2023-08-31T07:43:30;2.47;;;1.85;;
36855;SDS011;22788;51.434;6.786;2023-08-31T07:45:56;2.47;;;2.17;;
36855;SDS011;22788;51.434;6.786;2023-08-31T07:48:22;3.30;;;2.05;;
36855;SDS011;22788;51.434;6.786;2023-08-31T07:50:48;2.50;;;2.00;;
36855;SDS011;22788;51.434;6.786;2023-08-31T07:53:14;2.75;;;1.67;;
36855;SDS011;22788;51.434;6.786;2023-08-31T07:55:40;3.45;;;1.85;;
36855;SDS011;22788;51.434;6.786;2023-08-31T07:58:08;2.47;;;2.00;;
36855;SDS011;22788;51.434;6.786;2023-08-31T08:00:34;5.72;;;2.13;;
36855;SDS011;22788;51.434;6.786;2023-08-31T08:02:59;2.28;;;1.70;;
36855;SDS011;22788;51.434;6.786;2023-08-31T08:05:26;3.92;;;1.80;;
36855;SDS011;22788;51.434;6.786;2023-08-31T08:07:52;3.97;;;1.92;;
36855;SDS011;22788;51.434;6.786;2023-08-31T08:10:18;2.35;;;1.65;;
36855;SDS011;22788;51.434;6.786;2023-08-31T08:12:44;2.60;;;1.83;;
36855;SDS011;22788;51.434;6.786;2023-08-31T08:15:12;1.65;;;1.50;;
36855;SDS011;22788;51.434;6.786;2023-08-31T08:17:38;2.58;;;1.80;;
36855;SDS011;22788;51.434;6.786;2023-08-31T08:20:05;4.78;;;1.50;;
36855;SDS011;22788;51.434;6.786;2023-08-31T08:22:31;2.65;;;2.00;;
36855;SDS011;22788;51.434;6.786;2023-08-31T08:24:58;2.85;;;2.13;;
36855;SDS011;22788;51.434;6.786;2023-08-31T08:27:24;2.97;;;2.08;;
36855;SDS011;22788;51.434;6.786;2023-08-31T08:29:50;2.08;;;1.60;;
36855;SDS011;22788;51.434;6.786;2023-08-31T08:32:17;2.30;;;1.73;;
36855;SDS011;22788;51.434;6.786;2023-08-31T08:34:43;5.50;;;2.53;;
36855;SDS011;22788;51.434;6.786;2023-08-31T08:37:09;2.90;;;2.08;;
36855;SDS011;22788;51.434;6.786;2023-08-31T08:39:35;2.90;;;2.00;;
36855;SDS011;22788;51.434;6.786;2023-08-31T08:42:02;1.92;;;1.60;;
36855;SDS011;22788;51.434;6.786;2023-08-31T08:44:30;3.55;;;2.15;;
36855;SDS011;22788;51.434;6.786;2023-08-31T08:46:57;2.63;;;1.77;;
36855;SDS011;22788;51.434;6.786;2023-08-31T08:49:25;4.65;;;1.80;;
36855;SDS011;22788;51.434;6.786;2023-08-31T08:51:51;3.97;;;1.85;;
36855;SDS011;22788;51.434;6.786;2023-08-31T08:54:18;4.82;;;2.40;;
36855;SDS011;22788;51.434;6.786;2023-08-31T08:56:44;2.95;;;1.60;;
36855;SDS011;22788;51.434;6.786;2023-08-31T08:59:10;6.55;;;2.38;;
36855;SDS011;22788;51.434;6.786;2023-08-31T09:01:36;5.05;;;2.13;;
36855;SDS011;22788;51.434;6.786;2023-08-31T09:04:02;3.47;;;1.88;;
36855;SDS011;22788;51.434;6.786;2023-08-31T09:06:29;4.43;;;1.90;;
36855;SDS011;22788;51.434;6.786;2023-08-31T09:08:56;2.97;;;2.00;;
36855;SDS011;22788;51.434;6.786;2023-08-31T09:11:22;3.65;;;2.05;;
36855;SDS011;22788;51.434;6.786;2023-08-31T09:13:48;4.72;;;2.35;;
36855;SDS011;22788;51.434;6.786;2023-08-31T09:16:22;2.80;;;1.70;;
36855;SDS011;22788;51.434;6.786;2023-08-31T09:18:49;5.68;;;2.45;;
36855;SDS011;22788;51.434;6.786;2023-08-31T09:21:14;5.03;;;2.10;;
36855;SDS011;22788;51.434;6.786;2023-08-31T09:23:42;3.05;;;2.25;;
36855;SDS011;22788;51.434;6.786;2023-08-31T09:26:11;6.13;;;2.08;;
36855;SDS011;22788;51.434;6.786;2023-08-31T09:28:40;4.78;;;2.50;;
36855;SDS011;22788;51.434;6.786;2023-08-31T09:31:07;3.60;;;2.35;;
36855;SDS011;22788;51.434;6.786;2023-08-31T09:33:33;3.60;;;1.85;;
36855;SDS011;22788;51.434;6.786;2023-08-31T09:35:59;2.53;;;2.03;;
36855;SDS011;22788;51.434;6.786;2023-08-31T09:38:25;2.83;;;2.08;;
36855;SDS011;22788;51.434;6.786;2023-08-31T09:40:53;3.33;;;1.90;;
36855;SDS011;22788;51.434;6.786;2023-08-31T09:43:28;2.30;;;1.98;;
36855;SDS011;22788;51.434;6.786;2023-08-31T09:45:54;2.70;;;2.08;;
36855;SDS011;22788;51.434;6.786;2023-08-31T09:48:20;3.75;;;2.20;;
36855;SDS011;22788;51.434;6.786;2023-08-31T09:50:47;3.97;;;1.80;;
36855;SDS011;22788;51.434;6.786;2023-08-31T09:53:15;3.90;;;2.42;;
36855;SDS011;22788;51.434;6.786;2023-08-31T09:55:41;2.58;;;1.85;;
36855;SDS011;22788;51.434;6.786;2023-08-31T09:58:10;2.97;;;1.52;;
36855;SDS011;22788;51.434;6.786;2023-08-31T10:00:36;5.32;;;2.10;;
36855;SDS011;22788;51.434;6.786;2023-08-31T10:03:03;4.70;;;2.15;;
36855;SDS011;22788;51.434;6.786;2023-08-31T10:05:29;4.50;;;2.38;;
36855;SDS011;22788;51.434;6.786;2023-08-31T10:07:55;3.13;;;2.35;;
36855;SDS011;22788;51.434;6.786;2023-08-31T10:10:22;4.97;;;3.28;;
36855;SDS011;22788;51.434;6.786;2023-08-31T10:12:49;4.28;;;2.00;;
36855;SDS011;22788;51.434;6.786;2023-08-31T10:15:16;4.15;;;2.35;;
36855;SDS011;22788;51.434;6.786;2023-08-31T10:17:42;4.40;;;2.47;;
36855;SDS011;22788;51.434;6.786;2023-08-31T10:20:09;3.55;;;2.50;;
36855;SDS011;22788;51.434;6.786;2023-08-31T10:22:36;4.88;;;2.33;;
36855;SDS011;22788;51.434;6.786;2023-08-31T10:25:02;2.83;;;2.17;;
36855;SDS011;22788;51.434;6.786;2023-08-31T10:27:30;2.30;;;1.67;;
36855;SDS011;22788;51.434;6.786;2023-08-31T10:30:12;3.55;;;1.85;;
36855;SDS011;22788;51.434;6.786;2023-08-31T10:32:39;2.25;;;1.92;;
36855;SDS011;22788;51.434;6.786;2023-08-31T10:35:06;3.67;;;2.30;;
36855;SDS011;22788;51.434;6.786;2023-08-31T10:37:33;7.65;;;2.45;;
36855;SDS011;22788;51.434;6.786;2023-08-31T10:40:06;4.05;;;1.90;;
36855;SDS011;22788;51.434;6.786;2023-08-31T10:42:32;2.50;;;1.83;;
36855;SDS011;22788;51.434;6.786;2023-08-31T10:45:04;2.08;;;1.88;;
36855;SDS011;22788;51.434;6.786;2023-08-31T10:47:36;5.15;;;2.38;;
36855;SDS011;22788;51.434;6.786;2023-08-31T10:50:16;3.78;;;2.20;;
36855;SDS011;22788;51.434;6.786;2023-08-31T10:52:49;4.25;;;1.80;;
36855;SDS011;22788;51.434;6.786;2023-08-31T10:55:42;5.22;;;2.35;;
36855;SDS011;22788;51.434;6.786;2023-08-31T10:58:20;4.28;;;2.53;;
36855;SDS011;22788;51.434;6.786;2023-08-31T11:01:04;3.17;;;1.98;;
36855;SDS011;22788;51.434;6.786;2023-08-31T11:06:25;4.90;;;1.75;;
36855;SDS011;22788;51.434;6.786;2023-08-31T11:08:53;6.45;;;2.15;;
36855;SDS011;22788;51.434;6.786;2023-08-31T11:11:23;3.30;;;1.80;;
36855;SDS011;22788;51.434;6.786;2023-08-31T11:13:56;2.65;;;2.10;;
36855;SDS011;22788;51.434;6.786;2023-08-31T11:16:24;2.70;;;1.85;;
36855;SDS011;22788;51.434;6.786;2023-08-31T11:18:52;2.50;;;1.60;;
36855;SDS011;22788;51.434;6.786;2023-08-31T11:21:20;3.00;;;1.70;;
36855;SDS011;22788;51.434;6.786;2023-08-31T11:23:49;2.63;;;2.20;;
36855;SDS011;22788;51.434;6.786;2023-08-31T11:26:14;4.07;;;1.85;;
36855;SDS011;22788;51.434;6.786;2023-08-31T11:28:42;4.13;;;2.10;;
36855;SDS011;22788;51.434;6.786;2023-08-31T11:31:08;3.22;;;2.08;;
36855;SDS011;22788;51.434;6.786;2023-08-31T11:33:34;8.02;;;2.40;;
36855;SDS011;22788;51.434;6.786;2023-08-31T11:36:00;4.28;;;2.25;;
36855;SDS011;22788;51.434;6.786;2023-08-31T11:38:31;4.63;;;2.35;;
36855;SDS011;22788;51.434;6.786;2023-08-31T11:41:11;3.67;;;2.00;;
36855;SDS011;22788;51.434;6.786;2023-08-31T11:43:46;3.45;;;2.20;;
36855;SDS011;22788;51.434;6.786;2023-08-31T11:46:24;2.25;;;1.70;;
36855;SDS011;22788;51.434;6.786;2023-08-31T11:49:03;4.68;;;2.28;;
36855;SDS011;22788;51.434;6.786;2023-08-31T11:51:40;4.63;;;2.50;;
36855;SDS011;22788;51.434;6.786;2023-08-31T11:54:15;2.75;;;1.85;;
36855;SDS011;22788;51.434;6.786;2023-08-31T11:56:46;3.78;;;2.30;;
36855;SDS011;22788;51.434;6.786;2023-08-31T11:59:15;2.20;;;1.65;;
36855;SDS011;22788;51.434;6.786;2023-08-31T12:01:43;3.33;;;1.95;;
36855;SDS011;22788;51.434;6.786;2023-08-31T12:04:12;3.63;;;2.00;;
36855;SDS011;22788;51.434;6.786;2023-08-31T12:06:40;3.42;;;1.85;;
36855;SDS011;22788;51.434;6.786;2023-08-31T12:09:08;2.95;;;1.90;;
36855;SDS011;22788;51.434;6.786;2023-08-31T12:11:35;5.38;;;1.95;;
36855;SDS011;22788;51.434;6.786;2023-08-31T12:14:18;4.25;;;2.00;;
36855;SDS011;22788;51.434;6.786;2023-08-31T12:16:46;4.03;;;1.85;;
36855;SDS011;22788;51.434;6.786;2023-08-31T12:19:15;2.63;;;1.80;;
36855;SDS011;22788;51.434;6.786;2023-08-31T12:21:43;3.03;;;1.73;;
36855;SDS011;22788;51.434;6.786;2023-08-31T12:24:11;2.25;;;1.90;;
36855;SDS011;22788;51.434;6.786;2023-08-31T12:26:38;3.63;;;1.60;;
36855;SDS011;22788;51.434;6.786;2023-08-31T12:29:05;2.25;;;1.65;;
36855;SDS011;22788;51.434;6.786;2023-08-31T12:31:31;2.42;;;1.73;;
36855;SDS011;22788;51.434;6.786;2023-08-31T12:33:57;5.43;;;2.13;;
36855;SDS011;22788;51.434;6.786;2023-08-31T12:36:22;3.63;;;1.98;;
36855;SDS011;22788;51.434;6.786;2023-08-31T12:38:48;3.13;;;1.67;;
36855;SDS011;22788;51.434;6.786;2023-08-31T12:41:13;4.60;;;2.15;;
36855;SDS011;22788;51.434;6.786;2023-08-31T12:43:39;4.28;;;2.08;;
36855;SDS011;22788;51.434;6.786;2023-08-31T12:46:06;3.55;;;2.05;;
36855;SDS011;22788;51.434;6.786;2023-08-31T12:48:32;5.57;;;1.98;;
36855;SDS011;22788;51.434;6.786;2023-08-31T12:50:58;2.85;;;1.75;;
36855;SDS011;22788;51.434;6.786;2023-08-31T12:53:23;3.55;;;2.00;;
36855;SDS011;22788;51.434;6.786;2023-08-31T12:55:49;4.53;;;2.00;;
36855;SDS011;22788;51.434;6.786;2023-08-31T12:58:15;3.35;;;1.75;;
36855;SDS011;22788;51.434;6.786;2023-08-31T13:00:40;3.08;;;2.17;;
36855;SDS011;22788;51.434;6.786;2023-08-31T13:03:07;5.03;;;2.65;;
36855;SDS011;22788;51.434;6.786;2023-08-31T13:05:33;3.83;;;1.95;;
36855;SDS011;22788;51.434;6.786;2023-08-31T13:07:59;4.32;;;2.20;;
36855;SDS011;22788;51.434;6.786;2023-08-31T13:10:24;4.07;;;1.90;;
36855;SDS011;22788;51.434;6.786;2023-08-31T13:12:51;5.75;;;2.20;;
36855;SDS011;22788;51.434;6.786;2023-08-31T13:15:17;3.85;;;2.47;;
36855;SDS011;22788;51.434;6.786;2023-08-31T13:17:42;2.67;;;1.67;;
36855;SDS011;22788;51.434;6.786;2023-08-31T13:20:10;3.30;;;1.90;;
36855;SDS011;22788;51.434;6.786;2023-08-31T13:22:36;3.20;;;1.80;;
36855;SDS011;22788;51.434;6.786;2023-08-31T13:25:02;5.32;;;2.30;;
36855;SDS011;22788;51.434;6.786;2023-08-31T13:27:28;3.45;;;2.25;;
36855;SDS011;22788;51.434;6.786;2023-08-31T13:29:53;3.53;;;1.80;;
36855;SDS011;22788;51.434;6.786;2023-08-31T13:32:19;3.08;;;2.30;;
36855;SDS011;22788;51.434;6.786;2023-08-31T13:34:44;4.80;;;1.92;;
36855;SDS011;22788;51.434;6.786;2023-08-31T13:37:11;2.85;;;1.88;;
36855;SDS011;22788;51.434;6.786;2023-08-31T13:39:37;6.20;;;2.22;;
36855;SDS011;22788;51.434;6.786;2023-08-31T13:42:03;3.92;;;1.88;;
36855;SDS011;22788;51.434;6.786;2023-08-31T13:44:29;5.60;;;2.13;;
36855;SDS011;22788;51.434;6.786;2023-08-31T13:46:54;5.07;;;2.08;;
36855;SDS011;22788;51.434;6.786;2023-08-31T13:49:20;5.65;;;2.13;;
36855;SDS011;22788;51.434;6.786;2023-08-31T13:51:46;7.47;;;2.30;;
36855;SDS011;22788;51.434;6.786;2023-08-31T13:54:13;5.55;;;2.08;;
36855;SDS011;22788;51.434;6.786;2023-08-31T13:56:38;3.72;;;2.08;;
36855;SDS011;22788;51.434;6.786;2023-08-31T13:59:04;2.95;;;1.75;;
36855;SDS011;22788;51.434;6.786;2023-08-31T14:01:29;2.33;;;1.85;;
36855;SDS011;22788;51.434;6.786;2023-08-31T14:03:55;2.38;;;1.90;;
36855;SDS011;22788;51.434;6.786;2023-08-31T14:06:21;4.13;;;2.00;;
36855;SDS011;22788;51.434;6.786;2023-08-31T14:08:46;3.15;;;1.98;;
36855;SDS011;22788;51.434;6.786;2023-08-31T14:11:14;2.85;;;2.00;;
36855;SDS011;22788;51.434;6.786;2023-08-31T14:13:39;5.72;;;2.45;;
36855;SDS011;22788;51.434;6.786;2023-08-31T14:16:08;5.20;;;2.45;;
36855;SDS011;22788;51.434;6.786;2023-08-31T14:18:33;3.92;;;3.30;;
36855;SDS011;22788;51.434;6.786;2023-08-31T14:20:59;4.97;;;2.53;;
36855;SDS011;22788;51.434;6.786;2023-08-31T14:23:24;3.95;;;2.60;;
36855;SDS011;22788;51.434;6.786;2023-08-31T14:25:50;4.18;;;3.33;;
36855;SDS011;22788;51.434;6.786;2023-08-31T14:28:17;6.82;;;3.65;;
36855;SDS011;22788;51.434;6.786;2023-08-31T14:30:43;4.10;;;3.00;;
36855;SDS011;22788;51.434;6.786;2023-08-31T14:33:08;6.97;;;3.95;;
36855;SDS011;22788;51.434;6.786;2023-08-31T14:35:36;3.50;;;2.50;;
36855;SDS011;22788;51.434;6.786;2023-08-31T14:38:01;9.43;;;4.65;;
36855;SDS011;22788;51.434;6.786;2023-08-31T14:40:27;9.27;;;5.50;;
36855;SDS011;22788;51.434;6.786;2023-08-31T14:42:53;6.97;;;4.43;;
36855;SDS011;22788;51.434;6.786;2023-08-31T14:45:20;6.78;;;3.38;;
36855;SDS011;22788;51.434;6.786;2023-08-31T14:47:45;6.53;;;3.92;;
36855;SDS011;22788;51.434;6.786;2023-08-31T14:50:11;8.68;;;3.50;;